Time;durP1;ratioP1;P1;durP2;ratioP2;P2;SDS_P1;SDS_P2;PMS_P1;PMS_P2;Temp;Humidity;BMP_temperature;BMP_pressure;BME280_temperature;BME280_humidity;BME280_pressure;Samples;Min_cycle;Max_cycle;Signal;HPM_P1;HPM_P2
2023/12/26 00:00:52;;;;;;;26.60;17.10;;;11.10;99.20;;;;;;5040045;28;20049;-85
2023/12/26 00:03:18;;;;;;;24.15;16.42;;;11.10;99.20;;;;;;5042042;28;20377;-87
2023/12/26 00:05:44;;;;;;;20.33;15.40;;;11.10;99.30;;;;;;5049366;28;20432;-87
2023/12/26 00:08:09;;;;;;;20.35;14.18;;;11.10;99.30;;;;;;5034582;28;20124;-86
2023/12/26 00:10:35;;;;;;;27.00;16.73;;;11.10;99.30;;;;;;5035404;28;20040;-87
2023/12/26 00:13:01;;;;;;;22.02;14.95;;;11.10;99.30;;;;;;5035343;28;20025;-87
2023/12/26 00:15:27;;;;;;;22.65;15.57;;;11.10;99.40;;;;;;5031105;28;20026;-88
2023/12/26 00:17:53;;;;;;;21.35;15.32;;;11.10;99.40;;;;;;5040837;28;20077;-89
2023/12/26 00:20:19;;;;;;;23.05;15.57;;;11.10;99.40;;;;;;5048825;28;20063;-88
2023/12/26 00:22:45;;;;;;;22.65;15.95;;;11.00;99.30;;;;;;5049843;28;20018;-89
2023/12/26 00:25:11;;;;;;;21.83;16.38;;;11.00;99.40;;;;;;5033630;28;20036;-89
2023/12/26 00:27:39;;;;;;;23.65;16.63;;;11.00;99.50;;;;;;5032880;28;20554;-87
2023/12/26 00:30:07;;;;;;;24.23;17.35;;;11.00;99.40;;;;;;5034234;28;20025;-87
2023/12/26 00:32:34;;;;;;;24.02;17.27;;;11.00;99.40;;;;;;5034086;28;20028;-88
2023/12/26 00:34:59;;;;;;;27.58;18.45;;;10.90;99.40;;;;;;5034044;28;20454;-88
2023/12/26 00:37:25;;;;;;;25.75;17.70;;;10.90;99.40;;;;;;5037352;28;20064;-87
2023/12/26 00:39:52;;;;;;;24.83;17.25;;;10.90;99.50;;;;;;5039220;28;20017;-88
2023/12/26 00:42:18;;;;;;;27.70;16.92;;;10.80;99.50;;;;;;5045653;28;20466;-88
2023/12/26 00:44:43;;;;;;;27.50;17.02;;;10.80;99.60;;;;;;5037313;28;20032;-87
2023/12/26 00:47:09;;;;;;;26.48;17.63;;;10.80;99.60;;;;;;5035710;28;20520;-88
2023/12/26 00:49:35;;;;;;;26.70;18.67;;;10.80;99.50;;;;;;5046154;28;20493;-88
2023/12/26 00:52:00;;;;;;;28.75;19.40;;;10.80;99.40;;;;;;5034493;28;20037;-87
2023/12/26 00:54:26;;;;;;;29.17;20.08;;;10.80;99.40;;;;;;5034535;28;20072;-87
2023/12/26 00:56:52;;;;;;;29.50;20.08;;;10.70;99.40;;;;;;5033979;28;20091;-88
2023/12/26 00:59:17;;;;;;;30.60;20.98;;;10.70;99.50;;;;;;5019820;28;20117;-88
2023/12/26 01:01:43;;;;;;;21.60;14.50;;;10.70;99.50;;;;;;5027780;28;20029;-88
2023/12/26 01:04:09;;;;;;;29.13;21.73;;;10.60;99.40;;;;;;5033415;28;20029;-87
2023/12/26 01:06:35;;;;;;;37.20;25.48;;;10.60;99.50;;;;;;5033884;28;20076;-87
2023/12/26 01:09:00;;;;;;;25.92;19.42;;;10.50;99.60;;;;;;5016229;28;20021;-86
2023/12/26 01:11:26;;;;;;;28.95;20.60;;;10.50;99.70;;;;;;5020353;28;20116;-87
2023/12/26 01:13:52;;;;;;;29.90;20.05;;;10.40;99.70;;;;;;5035274;28;20068;-89
2023/12/26 01:16:19;;;;;;;31.77;21.25;;;10.50;99.90;;;;;;5034249;28;20044;-88
2023/12/26 01:18:45;;;;;;;41.90;26.40;;;10.50;99.90;;;;;;5034715;28;20465;-88
2023/12/26 01:21:11;;;;;;;36.75;24.35;;;10.50;99.90;;;;;;5034152;28;20056;-88
2023/12/26 01:23:37;;;;;;;29.27;19.75;;;10.50;99.90;;;;;;5034008;28;20104;-88
2023/12/26 01:26:03;;;;;;;35.58;22.48;;;10.50;99.90;;;;;;5045079;28;20061;-87
2023/12/26 01:28:29;;;;;;;32.90;22.15;;;10.50;99.90;;;;;;5034443;28;20030;-87
2023/12/26 01:30:55;;;;;;;38.80;26.77;;;10.40;99.90;;;;;;5034261;28;20030;-87
2023/12/26 01:33:20;;;;;;;32.15;23.10;;;10.40;99.90;;;;;;5033417;28;20034;-87
2023/12/26 01:35:47;;;;;;;37.28;21.05;;;10.40;99.90;;;;;;5033327;28;20100;-87
2023/12/26 01:38:13;;;;;;;34.53;23.13;;;10.40;99.90;;;;;;5028687;28;20030;-87
2023/12/26 01:40:40;;;;;;;30.75;21.40;;;10.50;99.90;;;;;;5045136;28;20096;-86
2023/12/26 01:43:06;;;;;;;32.45;21.88;;;10.50;99.90;;;;;;5037753;28;20038;-87
2023/12/26 01:45:32;;;;;;;31.00;22.70;;;10.50;99.90;;;;;;5032994;28;20099;-88
2023/12/26 01:48:00;;;;;;;33.45;21.98;;;10.60;99.90;;;;;;5015896;28;21561;-88
2023/12/26 01:50:27;;;;;;;34.63;23.38;;;10.60;99.90;;;;;;5033623;28;20063;-88
2023/12/26 01:52:53;;;;;;;30.45;21.67;;;10.70;99.90;;;;;;5034269;28;20350;-86
2023/12/26 01:55:20;;;;;;;31.98;23.52;;;10.70;99.90;;;;;;5043714;28;20055;-87
2023/12/26 01:57:46;;;;;;;29.33;20.45;;;10.70;99.90;;;;;;5049897;28;20025;-88
2023/12/26 02:00:13;;;;;;;33.28;22.10;;;10.70;99.90;;;;;;5036840;28;20021;-88
2023/12/26 02:02:41;;;;;;;31.17;21.98;;;10.80;99.90;;;;;;5037342;28;20647;-88
2023/12/26 02:05:07;;;;;;;29.13;20.23;;;10.80;99.80;;;;;;5022570;28;20033;-89
2023/12/26 02:07:33;;;;;;;29.92;22.00;;;10.80;99.80;;;;;;5050983;28;20091;-88
2023/12/26 02:10:02;;;;;;;35.00;22.55;;;10.80;99.80;;;;;;5020169;28;20036;-88
2023/12/26 02:12:28;;;;;;;32.53;21.67;;;10.80;99.90;;;;;;5017645;28;20401;-86
2023/12/26 02:14:54;;;;;;;31.10;22.23;;;10.80;99.90;;;;;;5036480;28;20047;-88
2023/12/26 02:17:23;;;;;;;30.88;22.10;;;10.80;99.90;;;;;;5037067;28;20009;-89
2023/12/26 02:19:49;;;;;;;35.22;23.90;;;10.90;99.90;;;;;;5025483;28;20021;-88
2023/12/26 02:22:15;;;;;;;30.80;21.95;;;10.90;99.90;;;;;;5037037;28;20064;-88
2023/12/26 02:24:42;;;;;;;29.40;21.63;;;10.90;99.90;;;;;;5019180;28;20029;-89
2023/12/26 02:27:36;;;;;;;29.80;20.95;;;10.90;99.90;;;;;;5045835;28;20044;-90
2023/12/26 02:30:02;;;;;;;29.75;20.85;;;10.90;99.90;;;;;;5038053;28;20512;-89
2023/12/26 02:32:30;;;;;;;30.33;21.02;;;11.00;99.90;;;;;;5017037;28;20370;-90
2023/12/26 02:35:00;;;;;;;31.67;21.30;;;11.00;99.90;;;;;;5029940;28;20044;-90
2023/12/26 02:37:26;;;;;;;27.85;21.13;;;11.00;99.90;;;;;;5037081;28;20443;-89
2023/12/26 02:39:52;;;;;;;32.90;22.48;;;11.00;99.90;;;;;;5037021;28;20022;-89
2023/12/26 02:42:22;;;;;;;31.08;22.30;;;11.10;99.90;;;;;;5037233;28;20185;-88
2023/12/26 02:44:48;;;;;;;29.27;19.67;;;11.10;99.90;;;;;;5036472;28;20436;-89
2023/12/26 02:47:14;;;;;;;30.23;20.60;;;11.10;99.90;;;;;;5037064;28;20079;-89
2023/12/26 02:49:40;;;;;;;31.00;22.52;;;11.10;99.90;;;;;;5038207;28;20123;-88
2023/12/26 02:52:06;;;;;;;32.17;21.63;;;11.10;99.90;;;;;;5036162;28;20039;-88
2023/12/26 02:54:31;;;;;;;31.85;21.67;;;11.10;99.90;;;;;;5036560;28;20037;-88
2023/12/26 02:56:57;;;;;;;28.45;20.73;;;11.10;99.90;;;;;;5036944;28;20017;-88
2023/12/26 02:59:23;;;;;;;34.53;22.33;;;11.10;99.90;;;;;;5036808;28;20033;-87
2023/12/26 03:01:48;;;;;;;26.38;21.13;;;11.20;99.90;;;;;;5018716;28;20739;-89
2023/12/26 03:04:15;;;;;;;27.65;20.60;;;11.20;99.90;;;;;;5036313;28;20377;-89
2023/12/26 03:06:40;;;;;;;32.45;22.02;;;11.20;99.90;;;;;;5036658;28;20515;-89
2023/12/26 03:09:08;;;;;;;33.33;20.65;;;11.20;99.90;;;;;;5036658;28;20104;-88
2023/12/26 03:11:33;;;;;;;30.20;20.88;;;11.20;99.90;;;;;;5035820;28;20095;-89
2023/12/26 03:14:00;;;;;;;29.58;20.50;;;11.20;99.90;;;;;;5035987;28;20033;-89
2023/12/26 03:16:25;;;;;;;31.10;21.98;;;11.20;99.90;;;;;;5035874;28;20539;-88
2023/12/26 03:18:51;;;;;;;31.02;21.83;;;11.20;99.90;;;;;;5051610;28;20017;-85
2023/12/26 03:21:17;;;;;;;28.73;21.35;;;11.20;99.90;;;;;;5037588;28;20533;-84
2023/12/26 03:23:43;;;;;;;28.45;21.27;;;11.20;99.90;;;;;;5018931;28;20136;-83
2023/12/26 03:26:08;;;;;;;32.55;23.35;;;11.20;99.90;;;;;;5034894;28;20037;-84
2023/12/26 03:28:34;;;;;;;30.33;21.83;;;11.20;99.90;;;;;;5039061;28;20150;-84
2023/12/26 03:31:04;;;;;;;30.25;21.27;;;11.20;99.90;;;;;;5026286;28;20116;-84
2023/12/26 03:33:29;;;;;;;32.33;21.25;;;11.10;99.90;;;;;;5038566;28;20119;-84
2023/12/26 03:35:55;;;;;;;32.78;23.02;;;11.10;99.90;;;;;;5035167;28;20053;-84
2023/12/26 03:38:21;;;;;;;29.50;22.90;;;11.10;99.90;;;;;;5035018;28;20022;-83
2023/12/26 03:40:47;;;;;;;28.40;19.05;;;11.10;99.90;;;;;;5017369;28;20110;-84
2023/12/26 03:43:12;;;;;;;30.98;22.23;;;11.10;99.90;;;;;;5036927;28;20037;-85
2023/12/26 03:45:38;;;;;;;30.67;21.65;;;11.10;99.90;;;;;;5042353;28;20104;-85
2023/12/26 03:48:05;;;;;;;29.73;20.98;;;11.10;99.90;;;;;;5034854;28;20044;-87
2023/12/26 03:50:31;;;;;;;30.55;21.20;;;11.10;99.90;;;;;;5046593;28;20020;-85
2023/12/26 03:52:57;;;;;;;29.65;21.63;;;11.10;99.90;;;;;;5021134;28;20359;-85
2023/12/26 03:55:22;;;;;;;36.05;25.58;;;11.00;99.90;;;;;;5035562;28;20029;-84
2023/12/26 03:57:48;;;;;;;30.73;21.48;;;11.10;99.90;;;;;;5038144;28;20025;-85
2023/12/26 04:00:15;;;;;;;32.83;22.45;;;11.10;99.90;;;;;;5039060;28;20022;-85
2023/12/26 04:02:41;;;;;;;34.00;22.80;;;11.00;99.90;;;;;;5034954;28;20021;-84
2023/12/26 04:05:08;;;;;;;32.28;22.00;;;11.00;99.90;;;;;;5034408;28;20466;-85
2023/12/26 04:07:34;;;;;;;29.17;21.58;;;11.00;99.90;;;;;;5034366;28;20386;-85
2023/12/26 04:09:59;;;;;;;31.60;21.35;;;11.00;99.90;;;;;;5019579;28;20033;-85
2023/12/26 04:12:25;;;;;;;32.78;22.67;;;11.00;99.90;;;;;;5034246;28;20530;-86
2023/12/26 04:14:51;;;;;;;30.55;21.17;;;11.00;99.90;;;;;;5033772;28;20083;-86
2023/12/26 04:17:17;;;;;;;30.48;21.10;;;11.00;99.90;;;;;;5033571;28;20088;-86
2023/12/26 04:19:43;;;;;;;31.88;22.45;;;11.00;99.90;;;;;;5044805;28;20025;-85
2023/12/26 04:22:11;;;;;;;31.77;22.90;;;11.00;99.90;;;;;;5040629;28;20037;-85
2023/12/26 04:24:37;;;;;;;29.27;20.52;;;11.00;99.90;;;;;;5034590;28;20029;-84
2023/12/26 04:27:02;;;;;;;32.88;23.85;;;11.00;99.90;;;;;;5034045;28;20203;-84
2023/12/26 04:29:28;;;;;;;33.35;22.88;;;11.00;99.90;;;;;;5036130;28;20036;-84
2023/12/26 04:31:54;;;;;;;36.58;23.23;;;11.00;99.90;;;;;;5040404;28;20453;-83
2023/12/26 04:34:20;;;;;;;32.97;23.83;;;11.00;99.90;;;;;;5033718;28;20038;-83
2023/12/26 04:36:45;;;;;;;31.77;21.58;;;11.00;99.90;;;;;;5035722;28;20021;-84
2023/12/26 04:39:11;;;;;;;27.88;20.60;;;11.00;99.90;;;;;;5034243;28;20117;-84
2023/12/26 04:41:37;;;;;;;32.47;22.23;;;11.00;99.90;;;;;;5033559;28;20036;-85
2023/12/26 04:44:03;;;;;;;29.52;21.98;;;11.00;99.90;;;;;;5033862;28;20467;-86
2023/12/26 04:46:28;;;;;;;29.83;21.10;;;10.90;99.90;;;;;;5038465;28;20426;-84
2023/12/26 04:48:54;;;;;;;32.08;22.05;;;10.90;99.90;;;;;;5044194;28;20064;-85
2023/12/26 04:51:20;;;;;;;33.00;23.88;;;10.90;99.90;;;;;;5017515;28;20088;-85
2023/12/26 04:53:47;;;;;;;33.15;22.60;;;10.90;99.90;;;;;;5033567;28;20048;-85
2023/12/26 04:56:17;;;;;;;32.30;22.98;;;10.80;99.90;;;;;;5036979;28;21268;-86
2023/12/26 04:58:44;;;;;;;30.55;21.95;;;10.90;99.90;;;;;;5035193;28;20037;-85
2023/12/26 05:01:10;;;;;;;36.08;23.33;;;10.90;99.90;;;;;;5033518;28;20041;-85
2023/12/26 05:03:35;;;;;;;31.73;23.23;;;10.90;99.90;;;;;;5034955;28;20037;-85
2023/12/26 05:06:01;;;;;;;34.33;21.77;;;10.90;99.90;;;;;;5034127;28;20074;-84
2023/12/26 05:08:27;;;;;;;31.65;21.35;;;10.90;99.90;;;;;;5032709;28;20073;-84
2023/12/26 05:10:52;;;;;;;32.90;21.70;;;10.90;99.90;;;;;;5035169;28;20473;-83
2023/12/26 05:13:18;;;;;;;33.30;22.95;;;10.90;99.90;;;;;;5015366;28;20087;-84
2023/12/26 05:15:44;;;;;;;35.95;23.65;;;10.80;99.90;;;;;;5038972;28;20045;-84
2023/12/26 05:18:09;;;;;;;35.17;24.95;;;10.80;99.90;;;;;;5033009;28;20037;-84
2023/12/26 05:20:35;;;;;;;30.67;23.25;;;10.80;99.90;;;;;;5032921;28;20051;-84
2023/12/26 05:23:01;;;;;;;32.33;22.95;;;10.90;99.90;;;;;;5033236;28;20029;-85
2023/12/26 05:25:26;;;;;;;36.28;26.50;;;10.90;99.90;;;;;;5034859;28;20546;-84
2023/12/26 05:27:52;;;;;;;31.10;22.83;;;10.90;99.90;;;;;;5033247;28;20045;-85
2023/12/26 05:30:18;;;;;;;32.03;22.77;;;10.90;99.90;;;;;;5032309;28;20072;-85
2023/12/26 05:32:43;;;;;;;39.15;26.13;;;10.80;99.90;;;;;;5038646;28;20393;-85
2023/12/26 05:35:09;;;;;;;37.60;25.23;;;10.90;99.90;;;;;;5046279;28;20033;-85
2023/12/26 05:37:35;;;;;;;37.05;25.52;;;10.90;99.90;;;;;;5035339;28;20119;-86
2023/12/26 05:40:00;;;;;;;34.42;25.65;;;10.90;99.90;;;;;;5032290;28;20025;-86
2023/12/26 05:42:26;;;;;;;38.95;28.20;;;10.80;99.90;;;;;;5032848;28;20022;-85
2023/12/26 05:44:52;;;;;;;29.30;22.48;;;10.80;99.90;;;;;;5033205;28;20033;-85
2023/12/26 05:47:19;;;;;;;27.35;21.70;;;10.80;99.90;;;;;;5035642;28;20091;-85
2023/12/26 05:49:45;;;;;;;35.45;23.73;;;10.80;99.90;;;;;;5032307;28;20069;-84
2023/12/26 05:52:11;;;;;;;31.80;23.17;;;10.80;99.90;;;;;;5042511;28;20045;-85
2023/12/26 05:54:37;;;;;;;30.88;23.48;;;10.80;99.90;;;;;;5042854;28;20026;-85
2023/12/26 05:57:03;;;;;;;35.10;24.77;;;10.80;99.90;;;;;;5015950;28;20033;-85
2023/12/26 05:59:28;;;;;;;29.92;22.63;;;10.80;99.90;;;;;;5035165;28;20026;-85
2023/12/26 06:01:54;;;;;;;35.95;23.60;;;10.80;99.90;;;;;;5046425;28;20469;-85
2023/12/26 06:04:20;;;;;;;32.95;22.98;;;10.80;99.90;;;;;;5016945;28;20057;-84
2023/12/26 06:06:45;;;;;;;33.67;24.75;;;10.80;99.90;;;;;;5033668;28;20245;-85
2023/12/26 06:09:11;;;;;;;34.92;25.67;;;10.80;99.90;;;;;;5035111;28;20037;-85
2023/12/26 06:11:37;;;;;;;41.20;26.83;;;10.80;99.90;;;;;;5039609;28;20477;-85
2023/12/26 06:14:02;;;;;;;35.97;25.38;;;10.80;99.90;;;;;;5035723;28;20104;-85
2023/12/26 06:16:28;;;;;;;35.95;25.23;;;10.90;99.90;;;;;;5032009;28;20474;-84
2023/12/26 06:18:54;;;;;;;36.72;24.90;;;10.80;99.90;;;;;;5015853;28;20033;-84
2023/12/26 06:21:20;;;;;;;33.38;24.48;;;10.90;99.90;;;;;;5033751;28;20038;-84
2023/12/26 06:23:45;;;;;;;34.63;24.85;;;10.90;99.90;;;;;;5033327;28;20017;-84
2023/12/26 06:26:11;;;;;;;36.63;25.45;;;10.90;99.90;;;;;;5032820;28;20113;-84
2023/12/26 06:28:37;;;;;;;33.63;24.63;;;10.90;99.90;;;;;;5033165;28;20057;-84
2023/12/26 06:31:03;;;;;;;35.70;25.35;;;10.90;99.90;;;;;;5033301;28;20068;-83
2023/12/26 06:33:28;;;;;;;34.92;24.85;;;10.90;99.90;;;;;;5032670;28;20422;-83
2023/12/26 06:35:54;;;;;;;37.00;23.85;;;10.90;99.90;;;;;;5031811;28;20118;-84
2023/12/26 06:38:20;;;;;;;43.40;27.85;;;10.90;99.90;;;;;;5021811;28;20393;-84
2023/12/26 06:40:45;;;;;;;36.75;25.42;;;10.90;99.90;;;;;;5035005;28;20033;-83
2023/12/26 06:43:11;;;;;;;40.25;26.27;;;10.90;99.90;;;;;;5036778;28;20108;-84
2023/12/26 06:45:37;;;;;;;36.25;26.38;;;10.90;99.90;;;;;;5041707;28;20133;-84
2023/12/26 06:48:03;;;;;;;39.42;27.90;;;10.90;99.90;;;;;;5036882;28;20033;-85
2023/12/26 06:50:29;;;;;;;38.25;25.65;;;10.90;99.90;;;;;;5037127;28;20094;-84
2023/12/26 06:52:54;;;;;;;36.47;25.70;;;10.90;99.90;;;;;;5037290;28;20108;-85
2023/12/26 06:55:20;;;;;;;35.67;26.60;;;10.90;99.90;;;;;;5036648;28;20120;-84
2023/12/26 06:57:45;;;;;;;43.40;29.52;;;10.90;99.90;;;;;;5037077;28;20045;-85
2023/12/26 07:00:13;;;;;;;37.33;26.70;;;10.90;99.90;;;;;;5037112;28;20032;-85
2023/12/26 07:02:39;;;;;;;34.60;24.85;;;10.90;99.90;;;;;;5036618;28;20053;-84
2023/12/26 07:05:05;;;;;;;34.75;24.75;;;10.90;99.90;;;;;;5036658;28;20057;-85
2023/12/26 07:07:31;;;;;;;42.38;27.90;;;10.90;99.90;;;;;;5036512;28;20045;-85
2023/12/26 07:09:56;;;;;;;34.35;25.13;;;11.00;99.90;;;;;;5035964;28;20044;-83
2023/12/26 07:12:22;;;;;;;37.70;25.70;;;11.00;99.90;;;;;;5031152;28;20029;-85
2023/12/26 07:14:48;;;;;;;41.15;26.73;;;11.00;99.90;;;;;;5036086;28;20034;-85
2023/12/26 07:17:13;;;;;;;38.67;26.60;;;11.00;99.90;;;;;;5036130;28;20033;-85
2023/12/26 07:19:39;;;;;;;38.38;26.48;;;11.00;99.90;;;;;;5035337;28;20026;-86
2023/12/26 07:22:05;;;;;;;33.15;24.83;;;11.00;99.90;;;;;;5040134;28;20060;-86
2023/12/26 07:24:30;;;;;;;36.67;25.88;;;11.00;99.90;;;;;;5036398;28;20025;-87
2023/12/26 07:26:56;;;;;;;38.80;25.92;;;11.00;99.90;;;;;;5036664;28;20037;-86
2023/12/26 07:29:23;;;;;;;37.55;25.52;;;11.00;99.90;;;;;;5043475;28;20036;-85
2023/12/26 07:31:51;;;;;;;35.25;24.63;;;11.00;99.90;;;;;;5044689;28;20036;-85
2023/12/26 07:34:16;;;;;;;41.47;25.73;;;11.00;99.90;;;;;;5036435;28;20037;-86
2023/12/26 07:36:42;;;;;;;38.67;26.48;;;11.00;99.90;;;;;;5037087;28;20037;-86
2023/12/26 07:39:08;;;;;;;35.97;25.42;;;11.00;99.90;;;;;;5035606;28;20115;-87
2023/12/26 07:41:34;;;;;;;37.45;26.35;;;11.00;99.90;;;;;;5035111;28;20037;-88
2023/12/26 07:44:00;;;;;;;38.63;27.27;;;11.00;99.90;;;;;;5031603;28;20045;-87
2023/12/26 07:46:25;;;;;;;38.72;26.30;;;11.00;99.90;;;;;;5032420;28;20026;-87
2023/12/26 07:48:51;;;;;;;37.33;27.05;;;11.00;99.90;;;;;;5036222;28;20021;-86
2023/12/26 07:51:17;;;;;;;35.00;26.35;;;11.10;99.90;;;;;;5036140;28;20365;-87
2023/12/26 07:53:43;;;;;;;38.47;27.38;;;11.00;99.90;;;;;;5036386;28;20053;-87
2023/12/26 07:56:08;;;;;;;40.40;25.60;;;11.10;99.90;;;;;;5040156;28;20389;-86
2023/12/26 07:58:35;;;;;;;34.67;26.13;;;11.10;99.90;;;;;;5035844;28;20091;-87
2023/12/26 08:01:02;;;;;;;38.42;27.25;;;11.10;99.90;;;;;;5035524;28;20025;-86
2023/12/26 08:03:27;;;;;;;36.40;26.45;;;11.10;99.90;;;;;;5011487;28;20021;-84
2023/12/26 08:05:53;;;;;;;39.53;26.83;;;11.10;99.90;;;;;;5028698;28;20070;-85
2023/12/26 08:08:19;;;;;;;40.90;27.73;;;11.10;99.90;;;;;;5034875;28;20381;-85
2023/12/26 08:10:47;;;;;;;37.03;27.02;;;11.10;99.90;;;;;;5034548;28;20026;-85
2023/12/26 08:13:13;;;;;;;38.42;26.13;;;11.10;99.90;;;;;;5035176;28;20037;-88
2023/12/26 08:15:39;;;;;;;38.05;26.50;;;11.20;99.90;;;;;;5037670;28;20099;-91
2023/12/26 08:18:05;;;;;;;35.13;25.77;;;11.20;99.90;;;;;;5020552;28;20481;-91
2023/12/26 08:20:36;;;;;;;33.33;25.10;;;11.20;99.90;;;;;;5036314;28;20121;-90
2023/12/26 08:23:02;;;;;;;36.20;26.10;;;11.30;99.90;;;;;;5018594;28;20036;-90
2023/12/26 08:25:28;;;;;;;35.72;25.80;;;11.30;99.90;;;;;;5036466;28;20029;-90
2023/12/26 08:27:54;;;;;;;43.67;28.05;;;11.40;99.90;;;;;;5019188;28;20080;-91
2023/12/26 08:30:20;;;;;;;39.15;27.70;;;11.40;99.90;;;;;;5036061;28;20033;-90
2023/12/26 08:32:46;;;;;;;43.53;28.05;;;11.40;99.90;;;;;;5036894;28;20068;-89
2023/12/26 08:35:11;;;;;;;35.20;26.00;;;11.40;99.90;;;;;;5036689;28;20029;-90
2023/12/26 08:37:37;;;;;;;37.40;25.92;;;11.40;99.90;;;;;;5018253;28;20034;-89
2023/12/26 08:40:03;;;;;;;43.83;29.83;;;11.40;99.90;;;;;;5036462;28;20026;-86
2023/12/26 08:42:29;;;;;;;41.75;27.42;;;11.50;99.90;;;;;;5040867;28;20103;-95
2023/12/26 08:44:55;;;;;;;45.22;29.27;;;11.50;99.90;;;;;;5040806;28;20069;-80
2023/12/26 08:47:21;;;;;;;34.83;24.83;;;11.40;99.90;;;;;;5022886;28;20034;-89
2023/12/26 08:49:46;;;;;;;39.53;27.40;;;11.40;99.90;;;;;;5018604;28;20038;-89
2023/12/26 08:52:13;;;;;;;39.33;27.13;;;11.40;99.90;;;;;;5018410;28;20447;-88
2023/12/26 08:54:41;;;;;;;41.53;28.30;;;11.40;99.90;;;;;;5048919;28;20036;-94
2023/12/26 08:57:07;;;;;;;40.58;28.77;;;11.40;99.90;;;;;;5038934;28;20025;-88
2023/12/26 08:59:32;;;;;;;42.78;29.55;;;11.40;99.90;;;;;;5036703;28;20426;-93
2023/12/26 09:01:58;;;;;;;38.53;27.05;;;11.40;99.90;;;;;;5036973;28;20394;-93
2023/12/26 09:04:26;;;;;;;36.05;28.42;;;11.40;99.90;;;;;;5020006;28;20029;-94
2023/12/26 09:06:53;;;;;;;37.88;25.90;;;11.40;99.90;;;;;;5020047;28;20178;-94
2023/12/26 09:09:19;;;;;;;39.75;28.10;;;11.40;99.90;;;;;;5037669;28;20060;-94
2023/12/26 09:11:44;;;;;;;41.58;28.27;;;11.40;99.90;;;;;;5019577;28;20084;-93
2023/12/26 09:14:10;;;;;;;37.65;25.13;;;11.40;99.90;;;;;;5019693;28;20490;-93
2023/12/26 09:16:36;;;;;;;38.33;27.48;;;11.40;99.90;;;;;;5038138;28;20092;-94
2023/12/26 09:19:02;;;;;;;46.65;30.50;;;11.40;99.90;;;;;;5037289;28;20116;-94
2023/12/26 09:21:27;;;;;;;38.88;27.13;;;11.40;99.90;;;;;;5040530;28;20060;-93
2023/12/26 09:23:53;;;;;;;41.03;28.10;;;11.40;99.90;;;;;;5022557;28;20025;-93
2023/12/26 09:26:22;;;;;;;36.30;26.73;;;11.40;99.90;;;;;;5016757;28;20083;-93
2023/12/26 09:28:49;;;;;;;37.90;27.07;;;11.30;99.90;;;;;;5018284;28;20029;-91
2023/12/26 09:31:15;;;;;;;42.70;28.60;;;11.40;99.90;;;;;;5038504;28;20021;-92
2023/12/26 09:33:40;;;;;;;41.88;28.00;;;11.30;99.90;;;;;;5040191;28;20163;-94
2023/12/26 09:36:06;;;;;;;39.90;28.45;;;11.40;99.90;;;;;;5034671;28;20394;-92
2023/12/26 09:38:32;;;;;;;41.25;28.23;;;11.40;99.90;;;;;;5017358;28;20508;-92
2023/12/26 09:40:58;;;;;;;44.90;30.15;;;11.40;99.90;;;;;;5036009;28;20025;-92
2023/12/26 09:43:24;;;;;;;40.72;28.98;;;11.40;99.90;;;;;;5018221;28;20093;-91
2023/12/26 09:45:50;;;;;;;38.40;27.33;;;11.40;99.90;;;;;;5035522;28;20064;-92
2023/12/26 09:48:16;;;;;;;38.83;29.27;;;11.50;99.90;;;;;;5024043;28;20022;-91
2023/12/26 09:50:42;;;;;;;38.47;27.67;;;11.50;99.90;;;;;;5047605;28;20088;-92
2023/12/26 09:53:09;;;;;;;39.28;29.02;;;11.40;99.90;;;;;;5039056;28;20029;-92
2023/12/26 09:55:35;;;;;;;42.40;31.48;;;11.40;99.90;;;;;;5019323;28;20026;-92
2023/12/26 09:58:02;;;;;;;42.05;29.52;;;11.40;99.90;;;;;;5015266;28;20014;-93
2023/12/26 10:00:29;;;;;;;42.20;30.25;;;11.40;99.90;;;;;;5027440;28;20010;-93
2023/12/26 10:02:55;;;;;;;42.65;30.23;;;11.50;99.90;;;;;;5020034;28;20030;-92
2023/12/26 10:05:25;;;;;;;44.25;29.05;;;11.50;99.90;;;;;;5019488;28;20032;-94
2023/12/26 10:07:51;;;;;;;45.47;30.65;;;11.50;99.90;;;;;;5018917;28;21547;-93
2023/12/26 10:10:22;;;;;;;44.97;28.63;;;11.50;99.90;;;;;;5037850;28;20041;-92
2023/12/26 10:12:49;;;;;;;41.88;29.70;;;11.50;99.90;;;;;;5036554;28;20025;-93
2023/12/26 10:15:15;;;;;;;41.20;29.77;;;11.50;99.90;;;;;;5030638;28;20381;-92
2023/12/26 10:17:45;;;;;;;42.60;30.00;;;11.50;99.90;;;;;;5045140;28;20432;-93
2023/12/26 10:20:14;;;;;;;42.87;30.23;;;11.50;99.90;;;;;;5021818;28;20026;-92
2023/12/26 10:22:43;;;;;;;41.28;29.48;;;11.50;99.90;;;;;;5022086;28;20101;-93
2023/12/26 10:25:10;;;;;;;39.17;28.50;;;11.50;99.90;;;;;;5022068;28;20029;-90
2023/12/26 10:27:37;;;;;;;42.88;29.55;;;11.50;99.90;;;;;;5038178;28;20033;-91
2023/12/26 10:30:03;;;;;;;41.33;30.23;;;11.60;99.90;;;;;;5037835;28;20026;-90
2023/12/26 10:32:30;;;;;;;45.40;30.70;;;11.60;99.90;;;;;;5040127;28;20030;-90
2023/12/26 10:34:55;;;;;;;44.75;31.92;;;11.60;99.90;;;;;;5043718;28;20029;-88
2023/12/26 10:37:22;;;;;;;45.28;29.58;;;11.50;99.90;;;;;;5042865;28;20064;-88
2023/12/26 10:39:48;;;;;;;37.35;28.45;;;11.50;99.90;;;;;;5038770;28;20025;-88
2023/12/26 10:42:17;;;;;;;42.08;28.63;;;11.50;99.90;;;;;;5038653;28;20083;-90
2023/12/26 10:44:44;;;;;;;38.55;28.17;;;11.50;99.90;;;;;;5039529;28;20084;-89
2023/12/26 10:47:11;;;;;;;43.45;29.38;;;11.50;99.90;;;;;;5037804;28;20084;-88
2023/12/26 10:49:40;;;;;;;42.13;27.05;;;11.60;99.90;;;;;;5042098;28;20021;-89
2023/12/26 10:52:08;;;;;;;38.33;27.27;;;11.60;99.90;;;;;;5044327;28;20030;-88
2023/12/26 10:54:38;;;;;;;43.60;28.67;;;11.60;99.90;;;;;;5037467;28;20021;-88
2023/12/26 10:57:05;;;;;;;;;;;11.60;99.90;;;;;;5030708;28;20033;-88
2023/12/26 10:59:31;;;;;;;39.95;28.17;;;11.70;99.90;;;;;;5035886;28;19931;-88
2023/12/26 11:01:57;;;;;;;40.45;28.00;;;11.60;99.90;;;;;;5016411;28;20124;-88
2023/12/26 11:04:23;;;;;;;41.38;28.60;;;11.70;99.90;;;;;;5041005;28;20117;-86
2023/12/26 11:06:49;;;;;;;43.80;29.95;;;11.70;99.90;;;;;;5038759;28;20516;-86
2023/12/26 11:09:15;;;;;;;39.92;28.67;;;11.70;99.90;;;;;;5043333;28;20036;-86
2023/12/26 11:11:42;;;;;;;41.80;32.47;;;11.70;99.90;;;;;;5036344;28;20025;-87
2023/12/26 11:14:07;;;;;;;44.65;29.48;;;11.70;99.90;;;;;;5019758;28;20049;-86
2023/12/26 11:16:35;;;;;;;42.50;30.45;;;11.70;99.90;;;;;;5021564;28;20033;-89
2023/12/26 11:19:01;;;;;;;43.58;30.65;;;11.70;99.90;;;;;;5037918;28;20033;-88
2023/12/26 11:21:29;;;;;;;43.20;29.50;;;11.70;99.90;;;;;;5037233;28;20478;-87
2023/12/26 11:23:56;;;;;;;43.70;32.88;;;11.70;99.90;;;;;;5038508;28;20022;-86
2023/12/26 11:26:21;;;;;;;43.63;30.38;;;11.70;99.90;;;;;;5030869;28;20025;-88
2023/12/26 11:28:48;;;;;;;42.22;30.27;;;11.70;99.90;;;;;;5044807;28;20087;-86
2023/12/26 11:31:15;;;;;;;43.40;30.73;;;11.70;99.90;;;;;;5037528;28;20110;-88
2023/12/26 11:33:41;;;;;;;43.25;29.63;;;11.80;99.90;;;;;;5020235;28;20116;-93
2023/12/26 11:36:08;;;;;;;42.78;31.10;;;11.80;99.90;;;;;;5035718;28;20103;-88
2023/12/26 11:38:35;;;;;;;42.85;30.88;;;11.80;99.90;;;;;;5037612;28;20029;-91
2023/12/26 11:41:01;;;;;;;45.72;31.42;;;11.80;99.80;;;;;;5027108;28;20021;-89
2023/12/26 11:43:27;;;;;;;41.13;28.00;;;11.80;99.80;;;;;;5019546;28;20034;-87
2023/12/26 11:45:53;;;;;;;42.20;29.58;;;11.70;99.90;;;;;;5037355;28;20032;-88
2023/12/26 11:48:18;;;;;;;39.72;29.50;;;11.80;99.90;;;;;;5037444;28;20033;-88
2023/12/26 11:50:44;;;;;;;46.97;32.28;;;11.80;99.90;;;;;;5037051;28;20014;-88
2023/12/26 11:53:10;;;;;;;45.38;31.63;;;11.80;99.90;;;;;;5037022;28;20037;-88
2023/12/26 11:55:36;;;;;;;49.70;33.05;;;11.80;99.90;;;;;;5019659;28;20025;-88
2023/12/26 11:58:01;;;;;;;48.50;32.55;;;11.80;99.90;;;;;;5037162;28;20108;-87
2023/12/26 12:00:27;;;;;;;48.25;32.55;;;11.90;99.90;;;;;;5036109;28;20016;-87
2023/12/26 12:02:53;;;;;;;44.42;30.40;;;11.90;99.90;;;;;;5037626;28;20061;-88
2023/12/26 12:05:41;;;;;;;53.35;31.92;;;11.90;99.90;;;;;;5085216;22;20048;-79
2023/12/26 12:08:15;;;;;;;43.22;30.40;;;11.90;99.90;;;;;;5046352;28;20048;-78
2023/12/26 12:11:07;;;;;;;39.28;29.48;;;11.90;99.90;;;;;;5053469;28;20029;-80
2023/12/26 12:13:33;;;;;;;44.58;29.63;;;11.90;99.90;;;;;;5035436;28;20061;-80
2023/12/26 12:15:59;;;;;;;44.67;29.88;;;11.90;99.90;;;;;;5042679;28;20436;-80
2023/12/26 12:18:24;;;;;;;43.92;30.05;;;11.90;99.80;;;;;;5052113;28;20037;-80
2023/12/26 12:20:50;;;;;;;43.72;29.33;;;12.00;99.80;;;;;;5051165;28;20029;-81
2023/12/26 12:23:16;;;;;;;42.75;30.75;;;12.00;99.80;;;;;;5044131;28;20029;-80